Time;durP1;ratioP1;P1;durP2;ratioP2;P2;SDS_P1;SDS_P2;PMS_P1;PMS_P2;Temp;Humidity;BMP_temperature;BMP_pressure;BME280_temperature;BME280_humidity;BME280_pressure;Samples;Min_cycle;Max_cycle;Signal;HPM_P1;HPM_P2
2021/04/12 00:00:51;;;;;;;2.70;2.50;;;7.70;99.90;;;;;;5026066;28;20194;-69
2021/04/12 00:03:26;;;;;;;3.80;2.93;;;7.70;99.90;;;;;;5026061;28;20199;-69
2021/04/12 00:06:08;;;;;;;6.50;3.20;;;7.80;99.90;;;;;;5031503;28;20187;-69
2021/04/12 00:09:02;;;;;;;3.30;2.83;;;7.90;99.90;;;;;;5022089;28;20656;-69
2021/04/12 00:11:55;;;;;;;2.90;2.43;;;8.00;99.90;;;;;;5025411;28;20234;-69
2021/04/12 00:14:33;;;;;;;3.40;3.10;;;8.00;99.90;;;;;;5024610;28;20184;-69
2021/04/12 00:17:22;;;;;;;3.13;2.83;;;8.10;99.90;;;;;;5022920;28;20589;-69
2021/04/12 00:20:31;;;;;;;5.10;3.20;;;8.10;99.90;;;;;;5024055;28;20275;-69
2021/04/12 00:23:00;;;;;;;5.20;2.77;;;8.20;99.90;;;;;;5024842;28;20244;-69
2021/04/12 00:25:48;;;;;;;5.97;3.03;;;8.20;99.90;;;;;;5024370;28;20193;-69
2021/04/12 00:28:31;;;;;;;3.60;2.90;;;8.20;99.90;;;;;;5027872;28;20199;-67
2021/04/12 00:31:17;;;;;;;2.83;2.53;;;8.30;99.90;;;;;;5025105;28;20199;-69
2021/04/12 00:34:07;;;;;;;5.30;2.53;;;8.20;99.90;;;;;;5027553;28;20195;-69
2021/04/12 00:36:53;;;;;;;3.47;2.80;;;8.20;99.90;;;;;;5023794;28;20196;-69
2021/04/12 00:39:57;;;;;;;4.53;2.90;;;8.10;99.90;;;;;;5025295;28;20252;-69
2021/04/12 00:42:43;;;;;;;3.17;2.40;;;8.10;99.90;;;;;;5039262;28;22207;-70
2021/04/12 00:45:46;;;;;;;2.67;2.30;;;8.10;99.90;;;;;;5025365;28;20193;-67
2021/04/12 00:48:27;;;;;;;4.40;2.60;;;8.20;99.90;;;;;;5024674;28;20207;-69
2021/04/12 00:51:32;;;;;;;2.83;2.53;;;8.10;99.90;;;;;;5033774;28;20184;-69
2021/04/12 00:54:41;;;;;;;5.00;2.43;;;8.10;99.90;;;;;;5023516;28;20282;-69
2021/04/12 00:57:39;;;;;;;4.73;2.57;;;8.10;99.90;;;;;;5021657;28;20196;-70
2021/04/12 01:00:19;;;;;;;5.03;2.87;;;8.20;99.90;;;;;;5023470;28;20563;-67
2021/04/12 01:03:13;;;;;;;3.67;2.70;;;8.20;99.90;;;;;;5006537;28;20283;-68
2021/04/12 01:06:07;;;;;;;3.10;2.60;;;8.20;99.90;;;;;;5025466;28;20234;-67
2021/04/12 01:09:03;;;;;;;7.40;2.60;;;8.10;99.90;;;;;;5023540;28;20593;-68
2021/04/12 01:12:10;;;;;;;4.50;2.50;;;8.10;99.90;;;;;;5020120;28;20185;-67
2021/04/12 01:15:25;;;;;;;3.53;2.57;;;8.10;99.90;;;;;;5022224;28;20192;-66
2021/04/12 01:18:49;;;;;;;4.17;2.87;;;8.20;99.90;;;;;;5023842;28;20230;-65
2021/04/12 01:21:37;;;;;;;5.00;2.53;;;8.30;99.90;;;;;;5009206;28;20195;-66
2021/04/12 01:24:54;;;;;;;5.07;2.80;;;8.40;99.90;;;;;;5007505;28;20202;-66
2021/04/12 01:27:40;;;;;;;4.90;2.90;;;8.60;99.90;;;;;;5025313;28;20184;-65
2021/04/12 01:30:44;;;;;;;6.83;3.13;;;8.70;99.90;;;;;;5031636;28;20215;-66
2021/04/12 01:33:43;;;;;;;7.33;3.10;;;8.60;99.90;;;;;;4997548;28;20813;-66
2021/04/12 01:36:25;;;;;;;3.43;2.93;;;8.60;99.90;;;;;;5008643;28;20203;-66
2021/04/12 01:38:57;;;;;;;7.47;3.07;;;8.60;99.90;;;;;;5024330;28;20224;-66
2021/04/12 01:42:18;;;;;;;3.20;2.77;;;8.50;99.90;;;;;;5036096;28;20279;-66
2021/04/12 01:45:49;;;;;;;3.77;2.70;;;8.60;99.90;;;;;;5009744;28;20660;-66
2021/04/12 01:49:08;;;;;;;6.30;2.63;;;8.60;99.90;;;;;;5007218;28;20207;-66
2021/04/12 01:52:32;;;;;;;3.83;2.50;;;8.60;99.90;;;;;;5023512;28;20204;-67
2021/04/12 01:55:24;;;;;;;4.40;2.70;;;8.70;99.90;;;;;;4998467;28;20239;-68
2021/04/12 01:58:22;;;;;;;3.67;2.47;;;8.80;99.90;;;;;;5004581;28;20220;-67
2021/04/12 02:01:18;;;;;;;4.13;2.63;;;8.80;99.90;;;;;;5025411;28;20246;-67
2021/04/12 02:04:20;;;;;;;4.43;3.17;;;8.90;99.90;;;;;;5007765;28;20556;-67
2021/04/12 02:07:35;;;;;;;2.87;2.30;;;8.90;99.90;;;;;;5023683;28;20198;-67
2021/04/12 02:10:27;;;;;;;3.50;2.70;;;8.90;99.90;;;;;;5003467;28;20196;-67
2021/04/12 02:13:19;;;;;;;5.07;2.77;;;8.90;99.90;;;;;;5008558;28;20200;-67
2021/04/12 02:16:13;;;;;;;3.43;2.70;;;8.80;99.90;;;;;;5031176;28;20192;-66
2021/04/12 02:18:56;;;;;;;3.23;2.57;;;8.80;99.90;;;;;;5020959;28;20885;-66
2021/04/12 02:21:31;;;;;;;2.87;2.57;;;8.90;99.90;;;;;;5021847;28;20192;-69
2021/04/12 02:24:28;;;;;;;3.23;2.77;;;8.80;99.90;;;;;;5005851;28;21252;-66
2021/04/12 02:27:32;;;;;;;5.43;2.23;;;8.70;99.90;;;;;;5001345;28;20607;-69
2021/04/12 02:30:19;;;;;;;3.57;2.73;;;8.70;99.90;;;;;;4999343;28;20200;-68
2021/04/12 02:33:11;;;;;;;5.90;2.53;;;8.70;99.90;;;;;;5027100;28;20195;-70
2021/04/12 02:36:02;;;;;;;3.00;2.57;;;8.70;99.90;;;;;;5021506;28;20188;-67
2021/04/12 02:38:59;;;;;;;3.90;2.50;;;8.80;99.90;;;;;;5021615;28;20216;-67
2021/04/12 02:42:02;;;;;;;3.77;2.60;;;8.90;99.90;;;;;;5020624;28;20195;-67
2021/04/12 02:44:47;;;;;;;2.70;2.37;;;8.90;99.90;;;;;;5011621;28;20742;-67
2021/04/12 02:47:40;;;;;;;3.70;2.77;;;9.10;99.90;;;;;;5001256;28;20615;-67
2021/04/12 02:50:37;;;;;;;2.97;2.67;;;9.10;99.90;;;;;;5021404;28;20189;-67
2021/04/12 02:53:58;;;;;;;5.27;3.00;;;9.10;99.90;;;;;;5021392;28;20275;-69
2021/04/12 02:56:52;;;;;;;4.13;2.60;;;9.20;99.90;;;;;;5021535;28;20656;-67
2021/04/12 02:59:52;;;;;;;2.97;2.40;;;9.30;99.90;;;;;;5027328;28;20957;-69
2021/04/12 03:02:52;;;;;;;4.47;2.53;;;9.40;99.90;;;;;;5020946;28;20192;-70
2021/04/12 03:05:47;;;;;;;3.43;2.80;;;9.40;99.90;;;;;;5020424;28;20190;-68
2021/04/12 03:08:45;;;;;;;5.30;2.67;;;9.50;99.90;;;;;;5023519;28;20200;-68
2021/04/12 03:11:11;;;;;;;2.90;2.33;;;9.40;99.90;;;;;;5023344;28;20200;-67
2021/04/12 03:14:38;;;;;;;4.73;2.80;;;9.50;99.90;;;;;;5021444;28;20212;-69
2021/04/12 03:17:56;;;;;;;9.00;2.50;;;9.50;99.90;;;;;;5010295;28;20278;-69
2021/04/12 03:21:15;;;;;;;4.00;2.27;;;9.50;99.90;;;;;;5029440;28;20193;-69
2021/04/12 03:24:30;;;;;;;4.47;2.53;;;9.40;99.90;;;;;;5024761;28;20195;-69
2021/04/12 03:27:32;;;;;;;5.20;2.40;;;9.50;99.90;;;;;;4996243;28;20568;-69
2021/04/12 03:30:30;;;;;;;4.27;2.70;;;9.60;99.90;;;;;;5023741;28;20192;-69
2021/04/12 03:33:23;;;;;;;3.57;2.30;;;9.60;99.90;;;;;;5040565;28;20187;-69
2021/04/12 03:36:12;;;;;;;4.70;2.30;;;9.60;99.90;;;;;;5039771;28;20204;-68
2021/04/12 03:39:07;;;;;;;2.93;2.50;;;9.50;99.90;;;;;;5024895;28;20200;-68
2021/04/12 03:41:44;;;;;;;4.43;2.57;;;9.30;99.90;;;;;;5024870;28;22228;-68
2021/04/12 03:44:20;;;;;;;4.13;2.77;;;9.20;99.90;;;;;;5026396;28;20632;-68
2021/04/12 03:47:28;;;;;;;4.37;2.63;;;9.20;99.90;;;;;;5018069;28;20188;-69
2021/04/12 03:50:13;;;;;;;3.60;2.30;;;9.20;99.90;;;;;;5010774;28;20192;-69
2021/04/12 03:53:18;;;;;;;5.77;3.27;;;9.20;99.90;;;;;;5027378;28;20199;-70
2021/04/12 03:56:10;;;;;;;4.50;3.10;;;9.30;99.90;;;;;;5009063;28;20188;-69
2021/04/12 03:58:56;;;;;;;5.90;3.10;;;9.30;99.90;;;;;;5010147;28;20212;-69
2021/04/12 04:02:18;;;;;;;6.67;2.80;;;9.20;99.90;;;;;;5026165;28;20189;-69
2021/04/12 04:05:32;;;;;;;3.97;2.60;;;9.20;99.90;;;;;;5008322;28;20238;-69
2021/04/12 04:08:17;;;;;;;7.07;3.43;;;9.10;99.90;;;;;;5009113;28;20207;-69
2021/04/12 04:11:20;;;;;;;2.60;2.40;;;9.20;99.90;;;;;;5028812;28;20196;-69
2021/04/12 04:14:44;;;;;;;5.30;3.00;;;9.20;99.90;;;;;;5024314;28;20203;-68
2021/04/12 04:17:55;;;;;;;4.40;2.90;;;9.20;99.90;;;;;;5008328;28;20204;-69
2021/04/12 04:20:48;;;;;;;3.27;2.43;;;9.20;99.90;;;;;;5015503;28;20207;-68
2021/04/12 04:23:30;;;;;;;3.73;2.73;;;9.10;99.90;;;;;;5023509;28;20318;-69
2021/04/12 04:26:58;;;;;;;3.00;2.70;;;9.10;99.90;;;;;;5025135;28;20237;-68
2021/04/12 04:29:48;;;;;;;3.80;3.10;;;9.20;99.90;;;;;;5018481;28;20246;-68
2021/04/12 04:32:30;;;;;;;4.67;2.90;;;9.40;99.90;;;;;;5003371;28;20200;-66
2021/04/12 04:35:45;;;;;;;6.60;2.97;;;9.50;99.90;;;;;;5021671;28;20752;-65
2021/04/12 04:39:04;;;;;;;4.97;2.60;;;9.60;99.90;;;;;;5022681;28;20299;-67
2021/04/12 04:41:37;;;;;;;4.67;2.80;;;9.70;99.90;;;;;;5024318;28;20193;-68
2021/04/12 04:45:11;;;;;;;5.77;2.90;;;9.80;99.90;;;;;;5004745;28;20199;-67
2021/04/12 04:48:10;;;;;;;3.80;2.40;;;9.80;99.90;;;;;;4948145;28;20257;-67
2021/04/12 04:51:04;;;;;;;5.00;2.87;;;9.90;99.90;;;;;;4918205;28;20210;-67
2021/04/12 04:53:54;;;;;;;4.73;2.50;;;10.00;99.90;;;;;;5017029;28;20208;-68
2021/04/12 04:56:35;;;;;;;2.90;2.43;;;10.10;99.90;;;;;;5019147;28;20747;-67
2021/04/12 04:59:39;;;;;;;5.40;3.00;;;10.10;99.90;;;;;;5024817;28;20224;-68
2021/04/12 05:02:49;;;;;;;3.73;2.60;;;10.20;99.90;;;;;;5006958;28;22163;-68
2021/04/12 05:05:38;;;;;;;3.17;2.60;;;10.30;99.90;;;;;;5004362;28;20230;-68
2021/04/12 05:09:08;;;;;;;3.70;3.00;;;10.40;99.90;;;;;;5022868;28;20939;-68
2021/04/12 05:12:20;;;;;;;4.30;2.53;;;10.40;99.90;;;;;;5000275;28;20203;-68
2021/04/12 05:15:15;;;;;;;6.63;2.87;;;10.50;99.90;;;;;;5025296;28;20196;-70
2021/04/12 05:18:00;;;;;;;4.87;2.50;;;10.60;99.90;;;;;;5022898;28;20308;-70
2021/04/12 05:21:36;;;;;;;4.43;2.60;;;10.80;99.90;;;;;;5027317;28;20184;-70
2021/04/12 05:24:34;;;;;;;5.73;2.50;;;10.90;99.90;;;;;;5020044;28;21782;-70
2021/04/12 05:28:01;;;;;;;5.23;2.60;;;10.80;99.90;;;;;;5025884;28;20212;-69
2021/04/12 05:30:45;;;;;;;3.37;2.47;;;10.80;99.90;;;;;;4992562;28;20227;-70
2021/04/12 05:33:44;;;;;;;4.50;2.70;;;10.80;99.90;;;;;;5026784;28;20218;-70
2021/04/12 05:36:44;;;;;;;4.53;2.20;;;10.90;99.90;;;;;;5015824;28;20279;-70
2021/04/12 05:40:03;;;;;;;3.67;2.40;;;10.90;99.90;;;;;;5012542;28;20220;-70
2021/04/12 05:43:00;;;;;;;3.30;2.50;;;10.90;99.90;;;;;;5017623;28;20251;-68
2021/04/12 05:45:40;;;;;;;3.23;2.37;;;10.90;99.90;;;;;;5012615;28;20196;-67
2021/04/12 05:48:44;;;;;;;4.53;2.50;;;10.90;99.90;;;;;;5012292;28;20220;-67
2021/04/12 05:51:48;;;;;;;5.73;2.53;;;11.00;99.90;;;;;;5007537;28;20211;-67
2021/04/12 05:55:12;;;;;;;6.83;2.40;;;11.00;99.90;;;;;;5011950;28;20246;-69
2021/04/12 05:58:23;;;;;;;7.77;2.17;;;11.10;99.90;;;;;;5010776;28;20247;-70
2021/04/12 06:01:18;;;;;;;8.93;2.70;;;11.40;99.90;;;;;;5017839;28;20211;-71
2021/04/12 06:04:41;;;;;;;2.23;1.90;;;11.50;99.90;;;;;;5009942;28;20562;-69
2021/04/12 06:07:39;;;;;;;4.63;2.10;;;11.70;99.90;;;;;;5026602;28;20193;-69
2021/04/12 06:10:51;;;;;;;3.87;2.40;;;11.70;99.90;;;;;;5010187;28;20219;-69
2021/04/12 06:13:49;;;;;;;5.40;2.40;;;11.70;99.90;;;;;;5010343;28;20196;-69
2021/04/12 06:16:57;;;;;;;5.00;2.33;;;11.50;99.90;;;;;;5024942;28;20214;-69
2021/04/12 06:20:20;;;;;;;7.00;2.27;;;11.40;99.90;;;;;;5030777;28;20216;-68
2021/04/12 06:23:34;;;;;;;4.53;2.43;;;11.50;99.90;;;;;;5006205;28;20231;-69
2021/04/12 06:26:33;;;;;;;5.93;2.30;;;11.60;99.90;;;;;;5022033;28;20305;-69
2021/04/12 06:29:30;;;;;;;6.57;2.57;;;11.60;99.90;;;;;;5024128;28;20193;-69
2021/04/12 06:32:43;;;;;;;3.47;2.50;;;11.80;99.90;;;;;;5022205;28;20192;-69
2021/04/12 06:35:59;;;;;;;4.70;2.53;;;12.00;99.90;;;;;;5004191;28;20200;-70
2021/04/12 06:38:44;;;;;;;3.63;2.97;;;12.20;99.90;;;;;;5004308;28;20262;-67
2021/04/12 06:41:57;;;;;;;3.20;2.53;;;12.40;99.90;;;;;;5004586;28;20180;-69
2021/04/12 06:45:19;;;;;;;4.17;2.30;;;12.50;99.90;;;;;;5003212;28;20716;-69
2021/04/12 06:48:16;;;;;;;3.43;2.20;;;12.80;99.90;;;;;;5021252;28;20266;-67
2021/04/12 06:51:35;;;;;;;3.13;2.57;;;12.80;99.90;;;;;;5022691;28;20883;-67
2021/04/12 06:54:41;;;;;;;7.97;2.60;;;13.00;99.90;;;;;;5023785;28;20254;-71
2021/04/12 06:57:34;;;;;;;7.40;2.60;;;12.80;99.90;;;;;;5028125;28;20603;-67
2021/04/12 07:00:22;;;;;;;3.67;2.40;;;12.70;99.90;;;;;;5027889;28;20274;-68
2021/04/12 07:03:33;;;;;;;6.47;2.50;;;12.90;99.90;;;;;;5007594;28;20199;-70
2021/04/12 07:06:50;;;;;;;5.47;2.53;;;13.10;99.90;;;;;;5012068;28;20691;-67
2021/04/12 07:10:02;;;;;;;3.73;2.20;;;13.10;99.90;;;;;;5017556;28;20704;-70
2021/04/12 07:13:18;;;;;;;3.47;2.10;;;13.20;99.90;;;;;;5030718;28;20187;-69
2021/04/12 07:16:33;;;;;;;4.67;2.00;;;13.20;99.90;;;;;;5025191;28;20188;-69
2021/04/12 07:19:44;;;;;;;4.43;2.40;;;13.30;99.90;;;;;;4957326;28;20327;-68
2021/04/12 07:22:48;;;;;;;3.37;2.30;;;13.40;99.90;;;;;;4986001;28;20193;-70
2021/04/12 07:26:05;;;;;;;3.60;2.10;;;13.30;99.90;;;;;;5017725;28;20187;-70
2021/04/12 07:29:16;;;;;;;7.63;2.50;;;13.20;99.90;;;;;;5013100;28;20216;-68
2021/04/12 07:32:42;;;;;;;4.07;2.43;;;13.10;99.90;;;;;;5014931;28;20192;-71
2021/04/12 07:35:32;;;;;;;4.57;2.60;;;12.90;99.90;;;;;;5013115;28;20200;-71
2021/04/12 07:38:52;;;;;;;4.50;2.17;;;13.00;99.90;;;;;;5024977;28;20354;-67
2021/04/12 07:41:41;;;;;;;3.17;2.20;;;13.20;99.90;;;;;;5013738;28;20201;-66
2021/04/12 07:44:52;;;;;;;4.30;2.63;;;13.30;99.90;;;;;;5027615;28;20196;-68
2021/04/12 07:48:26;;;;;;;5.87;2.50;;;13.30;99.90;;;;;;5023546;28;20201;-68
2021/04/12 07:51:34;;;;;;;4.30;2.37;;;13.20;99.90;;;;;;5028706;28;20195;-68
2021/04/12 07:54:44;;;;;;;5.90;2.60;;;13.40;99.90;;;;;;5028631;28;20192;-69
2021/04/12 07:57:32;;;;;;;3.30;2.30;;;13.50;99.90;;;;;;5009597;28;20200;-67
2021/04/12 08:00:52;;;;;;;2.53;1.90;;;13.60;99.90;;;;;;5015290;28;20204;-66
2021/04/12 08:03:54;;;;;;;4.37;2.10;;;13.70;99.90;;;;;;5011368;28;20196;-69
2021/04/12 08:06:44;;;;;;;3.60;2.13;;;13.50;99.90;;;;;;5030247;28;20188;-70
2021/04/12 08:09:52;;;;;;;2.40;2.00;;;13.50;99.90;;;;;;5025058;28;20191;-69
2021/04/12 08:13:05;;;;;;;4.50;1.80;;;13.40;99.90;;;;;;5009663;28;20184;-67
2021/04/12 08:16:29;;;;;;;3.07;2.03;;;13.40;99.90;;;;;;5011741;28;20423;-67
2021/04/12 08:19:26;;;;;;;5.20;2.40;;;13.40;99.90;;;;;;5023129;28;20225;-67
2021/04/12 08:22:52;;;;;;;5.07;2.07;;;13.60;99.90;;;;;;5018456;28;20189;-68
2021/04/12 08:26:11;;;;;;;4.70;2.00;;;13.80;99.90;;;;;;5036752;28;20249;-67
2021/04/12 08:29:16;;;;;;;3.30;2.10;;;14.00;99.90;;;;;;5029057;28;20185;-68
2021/04/12 08:31:53;;;;;;;4.70;2.37;;;14.10;99.90;;;;;;5028628;28;20265;-68
2021/04/12 08:34:42;;;;;;;4.03;2.00;;;14.30;99.90;;;;;;5010622;28;20275;-68
2021/04/12 08:37:58;;;;;;;4.03;2.07;;;14.20;99.90;;;;;;5015462;28;20300;-68
2021/04/12 08:41:12;;;;;;;6.97;2.27;;;14.00;99.90;;;;;;5016445;28;20195;-69
2021/04/12 08:44:12;;;;;;;3.87;2.13;;;13.70;99.90;;;;;;5040246;28;20234;-68
2021/04/12 08:47:25;;;;;;;2.90;2.20;;;13.90;99.90;;;;;;5031373;28;20193;-68
2021/04/12 08:50:29;;;;;;;3.93;2.10;;;13.90;99.90;;;;;;5024832;28;20201;-68
2021/04/12 08:53:56;;;;;;;3.90;2.10;;;14.10;99.90;;;;;;5030557;28;20186;-68
2021/04/12 08:56:50;;;;;;;3.17;1.90;;;14.00;99.90;;;;;;5014076;28;20645;-68
2021/04/12 08:59:58;;;;;;;4.40;2.10;;;14.20;99.90;;;;;;5013700;28;20635;-68
2021/04/12 09:03:05;;;;;;;5.13;2.40;;;14.20;99.90;;;;;;5007290;28;20610;-68
2021/04/12 09:06:05;;;;;;;3.10;2.20;;;14.40;99.90;;;;;;5008030;28;20184;-68
2021/04/12 09:09:29;;;;;;;4.13;1.93;;;14.70;99.90;;;;;;5021361;28;20612;-68
2021/04/12 09:12:55;;;;;;;4.67;2.07;;;14.80;99.90;;;;;;4999755;28;20219;-68
2021/04/12 09:15:56;;;;;;;3.10;2.00;;;15.00;99.90;;;;;;4962786;28;20199;-68
2021/04/12 09:18:49;;;;;;;3.60;2.20;;;15.20;99.90;;;;;;5018234;28;20626;-67
2021/04/12 09:21:57;;;;;;;5.00;2.37;;;15.20;99.90;;;;;;5018483;28;20549;-67
2021/04/12 09:25:19;;;;;;;5.70;2.27;;;15.20;99.90;;;;;;5026637;28;20193;-67
2021/04/12 09:28:28;;;;;;;2.93;1.90;;;15.40;99.90;;;;;;5025449;28;20199;-68
2021/04/12 09:32:04;;;;;;;5.20;2.10;;;15.60;99.90;;;;;;5020265;28;20215;-68
2021/04/12 09:35:31;;;;;;;8.03;2.30;;;15.40;99.90;;;;;;5003327;28;20196;-67
2021/04/12 09:38:35;;;;;;;4.63;2.03;;;15.60;99.90;;;;;;4980702;28;20226;-68
2021/04/12 09:41:21;;;;;;;4.47;2.20;;;15.80;99.90;;;;;;5026091;28;20196;-68
2021/04/12 09:44:21;;;;;;;3.77;1.90;;;15.80;99.90;;;;;;5007262;28;20226;-68
2021/04/12 09:47:13;;;;;;;9.00;2.43;;;15.50;99.90;;;;;;5008627;28;20222;-67
2021/04/12 09:50:19;;;;;;;4.17;2.20;;;15.80;99.90;;;;;;5011587;28;20180;-68
2021/04/12 09:53:31;;;;;;;6.37;2.50;;;16.00;99.90;;;;;;4970550;28;20189;-68
2021/04/12 09:56:51;;;;;;;6.93;2.30;;;16.00;99.90;;;;;;4983269;28;20245;-68
2021/04/12 09:59:51;;;;;;;2.80;2.20;;;16.30;99.90;;;;;;5017149;28;20215;-69
2021/04/12 10:03:15;;;;;;;3.80;2.07;;;16.40;99.90;;;;;;5025888;28;20207;-68
2021/04/12 10:06:25;;;;;;;4.13;2.10;;;16.50;99.90;;;;;;5011160;28;20283;-68
2021/04/12 10:09:33;;;;;;;2.87;2.03;;;16.70;99.90;;;;;;5026558;28;20195;-68
2021/04/12 10:12:40;;;;;;;3.63;1.80;;;16.90;99.90;;;;;;5047962;28;20648;-68
2021/04/12 10:15:33;;;;;;;5.60;2.17;;;17.00;99.90;;;;;;5023518;28;20199;-68
2021/04/12 10:19:04;;;;;;;4.93;2.13;;;17.10;99.90;;;;;;5022858;28;20212;-69
2021/04/12 10:21:47;;;;;;;6.00;2.30;;;17.20;99.90;;;;;;4980660;28;20208;-68
2021/04/12 10:24:53;;;;;;;6.03;2.10;;;17.00;99.90;;;;;;4966885;28;20192;-68
2021/04/12 10:27:36;;;;;;;4.93;1.77;;;16.60;99.90;;;;;;4951600;28;20235;-68
2021/04/12 10:30:34;;;;;;;3.10;1.40;;;16.70;99.90;;;;;;5029805;28;20192;-68
2021/04/12 10:33:14;;;;;;;8.07;1.60;;;16.10;99.90;;;;;;5005379;28;20203;-68
2021/04/12 10:36:02;;;;;;;3.93;1.80;;;15.70;99.90;;;;;;5041213;28;20196;-67
2021/04/12 10:38:59;;;;;;;4.93;1.80;;;15.90;99.90;;;;;;5029702;28;20211;-68
2021/04/12 10:42:09;;;;;;;2.93;1.40;;;16.30;99.90;;;;;;5016105;28;20201;-68
2021/04/12 10:44:53;;;;;;;1.97;1.20;;;16.40;99.90;;;;;;5007663;28;20303;-68
2021/04/12 10:47:49;;;;;;;2.10;1.20;;;16.60;99.90;;;;;;5022497;28;20536;-68
2021/04/12 10:50:46;;;;;;;2.50;1.40;;;16.90;99.90;;;;;;5026607;28;20195;-68
2021/04/12 10:54:06;;;;;;;4.90;1.77;;;17.00;99.90;;;;;;5007047;28;20327;-69
2021/04/12 10:56:59;;;;;;;2.63;1.50;;;17.10;99.90;;;;;;4999321;28;20201;-69
2021/04/12 11:00:02;;;;;;;2.57;1.13;;;16.90;99.90;;;;;;5033799;28;20224;-69
2021/04/12 11:03:18;;;;;;;3.43;1.70;;;16.90;99.90;;;;;;5025721;28;20223;-69
2021/04/12 11:06:32;;;;;;;2.97;1.07;;;16.70;99.90;;;;;;5026385;28;20188;-68
2021/04/12 11:09:13;;;;;;;1.57;1.13;;;16.80;99.90;;;;;;4972810;28;20651;-68
2021/04/12 11:12:14;;;;;;;3.77;1.50;;;16.70;99.90;;;;;;5017798;28;20208;-68
2021/04/12 11:15:00;;;;;;;1.53;1.10;;;16.90;99.90;;;;;;5008649;28;20180;-69
2021/04/12 11:18:06;;;;;;;3.67;1.37;;;16.30;99.90;;;;;;5020692;28;20784;-68
2021/04/12 11:20:57;;;;;;;1.30;1.17;;;16.60;99.90;;;;;;5015729;28;20534;-68
2021/04/12 11:23:56;;;;;;;2.07;1.37;;;16.50;99.90;;;;;;5009191;28;20212;-68
2021/04/12 11:26:50;;;;;;;1.80;1.30;;;16.20;99.90;;;;;;5007590;28;20365;-68
2021/04/12 11:29:34;;;;;;;2.97;1.30;;;16.30;99.90;;;;;;5011461;28;20196;-68
2021/04/12 11:32:43;;;;;;;1.50;1.10;;;16.30;99.90;;;;;;5013099;28;20195;-68
2021/04/12 11:35:25;;;;;;;1.37;1.10;;;16.50;98.80;;;;;;5016933;28;20191;-69
2021/04/12 11:38:09;;;;;;;1.33;0.97;;;16.60;98.50;;;;;;5013370;28;20184;-69
2021/04/12 11:41:00;;;;;;;1.37;1.07;;;16.40;98.70;;;;;;5040024;28;20554;-69
2021/04/12 11:43:39;;;;;;;2.63;1.07;;;16.60;99.90;;;;;;5013118;28;20188;-69
2021/04/12 11:46:08;;;;;;;2.03;1.20;;;16.50;99.90;;;;;;5019804;28;20756;-69
2021/04/12 11:49:17;;;;;;;2.90;1.40;;;16.50;99.90;;;;;;5026410;28;20192;-69
2021/04/12 11:52:22;;;;;;;3.80;1.20;;;16.10;99.90;;;;;;4999285;28;20200;-68
2021/04/12 11:55:22;;;;;;;5.30;1.40;;;16.10;99.90;;;;;;4999895;28;20188;-68
2021/04/12 11:58:15;;;;;;;3.20;1.30;;;16.30;99.90;;;;;;5022238;28;20195;-68
2021/04/12 12:01:06;;;;;;;1.87;1.20;;;16.40;99.80;;;;;;5029180;28;20291;-69
2021/04/12 12:03:54;;;;;;;2.20;1.23;;;16.50;99.90;;;;;;5022108;28;20298;-69
2021/04/12 12:06:55;;;;;;;1.63;1.03;;;16.30;99.20;;;;;;5021127;28;20244;-69
2021/04/12 12:09:37;;;;;;;1.87;1.30;;;16.50;99.30;;;;;;5027703;28;20191;-69
2021/04/12 12:12:13;;;;;;;1.77;1.30;;;16.00;98.90;;;;;;5031255;28;20197;-69
2021/04/12 12:14:59;;;;;;;2.57;1.30;;;15.60;98.60;;;;;;5029197;28;20180;-69
2021/04/12 12:17:42;;;;;;;1.70;1.00;;;16.00;99.50;;;;;;5028201;28;20204;-68
2021/04/12 12:20:34;;;;;;;3.27;1.20;;;16.10;99.90;;;;;;5029652;28;20200;-69
2021/04/12 12:23:34;;;;;;;1.63;1.17;;;16.20;99.60;;;;;;5028166;28;20233;-69
2021/04/12 12:26:06;;;;;;;4.00;1.40;;;16.50;99.40;;;;;;5026380;28;20247;-68
2021/04/12 12:29:25;;;;;;;2.13;1.13;;;16.40;99.70;;;;;;5009702;28;20238;-68
2021/04/12 12:32:16;;;;;;;2.20;1.33;;;16.50;98.00;;;;;;5025470;28;20240;-68
2021/04/12 12:34:59;;;;;;;1.10;1.00;;;16.30;99.60;;;;;;5029342;28;20188;-69
2021/04/12 12:37:44;;;;;;;4.37;1.70;;;16.30;98.80;;;;;;5028716;28;20747;-69
2021/04/12 12:40:43;;;;;;;2.27;1.07;;;16.00;99.90;;;;;;5030370;28;20598;-69
2021/04/12 12:43:19;;;;;;;1.93;1.50;;;15.50;98.40;;;;;;5025177;28;20214;-69
2021/04/12 12:45:49;;;;;;;4.07;1.57;;;16.00;99.90;;;;;;5030658;28;20247;-70
2021/04/12 12:48:34;;;;;;;3.17;1.43;;;16.20;99.90;;;;;;5012373;28;20209;-70
2021/04/12 12:51:39;;;;;;;3.67;1.20;;;16.30;99.90;;;;;;5027108;28;20188;-70
2021/04/12 12:54:45;;;;;;;1.97;1.10;;;16.30;99.90;;;;;;5029472;28;20283;-70
2021/04/12 12:57:25;;;;;;;3.93;1.77;;;15.80;99.90;;;;;;5012705;28;20188;-70
2021/04/12 13:00:08;;;;;;;4.67;1.10;;;16.00;99.90;;;;;;5013879;28;20298;-70
2021/04/12 13:02:42;;;;;;;1.93;1.30;;;16.30;99.90;;;;;;5028553;28;20201;-69
2021/04/12 13:05:23;;;;;;;2.87;1.40;;;16.00;99.90;;;;;;5007961;28;20274;-70
2021/04/12 13:08:12;;;;;;;4.93;1.40;;;15.90;99.90;;;;;;5006121;28;20195;-70
2021/04/12 13:10:50;;;;;;;4.40;1.30;;;16.00;99.90;;;;;;5024801;28;20183;-70
2021/04/12 13:13:36;;;;;;;3.10;1.30;;;15.80;99.90;;;;;;5037970;28;20274;-70
2021/04/12 13:16:28;;;;;;;1.37;1.27;;;15.90;99.90;;;;;;5009632;28;20271;-70
2021/04/12 13:19:07;;;;;;;2.43;1.20;;;15.80;99.90;;;;;;5020098;28;20279;-70
2021/04/12 13:21:43;;;;;;;2.00;1.23;;;15.30;99.90;;;;;;5033179;28;20192;-70
2021/04/12 13:24:35;;;;;;;2.17;1.67;;;15.70;99.90;;;;;;5028278;28;20192;-70
2021/04/12 13:27:16;;;;;;;1.77;1.40;;;15.40;99.90;;;;;;5012429;28;20200;-69
2021/04/12 13:30:22;;;;;;;1.83;1.30;;;15.70;99.90;;;;;;5025479;28;20188;-69
2021/04/12 13:33:00;;;;;;;5.87;1.60;;;15.70;99.90;;;;;;5002623;28;20211;-69
2021/04/12 13:35:35;;;;;;;1.63;1.30;;;15.80;99.90;;;;;;5026370;28;20310;-70
2021/04/12 13:38:27;;;;;;;3.10;1.97;;;15.70;99.90;;;;;;5027516;28;20698;-69
2021/04/12 13:41:15;;;;;;;1.73;1.40;;;15.50;99.90;;;;;;5004270;28;20621;-69
2021/04/12 13:43:46;;;;;;;3.77;1.33;;;15.60;99.90;;;;;;5023030;28;20231;-70
2021/04/12 13:46:23;;;;;;;2.03;1.30;;;15.50;99.90;;;;;;5044064;28;20224;-69
2021/04/12 13:49:18;;;;;;;2.73;1.30;;;15.60;99.90;;;;;;5023817;28;20204;-69
2021/04/12 13:51:51;;;;;;;2.03;1.60;;;15.60;99.90;;;;;;5003700;28;20234;-70
2021/04/12 13:54:31;;;;;;;2.53;1.50;;;15.60;99.90;;;;;;5044431;28;20602;-70
2021/04/12 13:57:34;;;;;;;2.60;1.30;;;15.60;99.90;;;;;;5024464;28;20222;-69
2021/04/12 14:01:12;;;;;;;2.60;1.50;;;15.50;99.90;;;;;;5013437;28;20222;-69
2021/04/12 14:04:05;;;;;;;4.03;1.50;;;15.50;99.90;;;;;;4982803;28;20224;-69
2021/04/12 14:07:00;;;;;;;1.63;1.30;;;15.40;99.90;;;;;;4982256;28;20236;-69
2021/04/12 14:09:50;;;;;;;2.13;1.30;;;15.40;99.90;;;;;;5024336;23;20570;-73
2021/04/12 14:12:29;;;;;;;2.43;1.50;;;15.30;99.90;;;;;;4997448;28;20844;-72
2021/04/12 14:15:05;;;;;;;2.20;1.60;;;15.20;99.90;;;;;;5000947;28;20287;-73
2021/04/12 14:17:48;;;;;;;2.50;1.30;;;15.00;99.90;;;;;;4981388;28;20231;-72
2021/04/12 14:20:51;;;;;;;2.47;1.30;;;15.20;99.90;;;;;;4997143;28;20197;-73
2021/04/12 14:23:34;;;;;;;1.60;1.47;;;15.20;99.90;;;;;;4988113;28;20231;-73
2021/04/12 14:26:20;;;;;;;3.00;1.60;;;15.20;99.90;;;;;;4981972;28;20188;-73
2021/04/12 14:28:51;;;;;;;1.57;1.10;;;14.90;99.90;;;;;;5000782;28;20275;-73
2021/04/12 14:31:33;;;;;;;2.53;1.37;;;14.70;99.90;;;;;;4998481;28;20251;-73
2021/04/12 14:34:10;;;;;;;4.53;1.93;;;14.60;99.90;;;;;;4997487;28;20839;-73
2021/04/12 14:36:44;;;;;;;4.43;1.60;;;14.80;99.90;;;;;;4997777;28;20716;-73
2021/04/12 14:39:25;;;;;;;2.60;1.63;;;14.80;99.90;;;;;;5002176;28;20838;-73
2021/04/12 14:42:14;;;;;;;3.70;1.40;;;14.50;99.90;;;;;;4995893;28;20224;-72
2021/04/12 14:45:07;;;;;;;4.37;1.40;;;14.40;99.90;;;;;;4985308;28;20674;-74
2021/04/12 14:47:47;;;;;;;3.60;1.57;;;14.50;99.90;;;;;;4995773;28;20198;-73
2021/04/12 14:50:21;;;;;;;4.40;1.70;;;14.50;99.90;;;;;;4999349;28;20882;-72
2021/04/12 14:53:10;;;;;;;3.57;1.50;;;14.40;99.90;;;;;;5004146;28;20202;-73
2021/04/12 14:56:06;;;;;;;4.30;1.70;;;14.40;99.90;;;;;;4999955;28;20194;-72
2021/04/12 14:58:46;;;;;;;2.47;1.40;;;14.40;99.90;;;;;;4999451;28;20252;-72
2021/04/12 15:01:23;;;;;;;2.57;1.83;;;14.50;99.90;;;;;;5007371;28;20199;-73
2021/04/12 15:04:09;;;;;;;3.63;1.87;;;14.10;99.90;;;;;;5017624;28;20326;-72
2021/04/12 15:07:04;;;;;;;3.37;1.73;;;14.10;99.90;;;;;;4989577;28;20290;-73
2021/04/12 15:09:52;;;;;;;2.23;1.70;;;14.10;99.90;;;;;;5004167;28;20800;-72
2021/04/12 15:12:22;;;;;;;3.67;1.87;;;14.00;99.90;;;;;;4988178;28;20271;-73
2021/04/12 15:15:08;;;;;;;2.83;1.70;;;13.80;99.90;;;;;;5004629;28;20771;-73
2021/04/12 15:17:46;;;;;;;15.63;2.10;;;13.80;99.90;;;;;;5003574;28;20266;-72
2021/04/12 15:20:50;;;;;;;4.87;2.03;;;14.00;99.90;;;;;;5004536;28;20878;-73
2021/04/12 15:23:29;;;;;;;5.03;2.30;;;14.00;99.90;;;;;;5002674;28;20298;-73
2021/04/12 15:26:12;;;;;;;4.40;2.50;;;13.90;99.90;;;;;;4998248;28;20570;-70
2021/04/12 15:28:39;;;;;;;2.63;2.23;;;13.70;99.90;;;;;;5003709;28;20193;-70